Holder, Florida
Current Conditions -  °F | °C
As of 9:35 AM on Monday 20 Oct 2014 (Local Time) from KCGC Reporting Station
Clear Clear  
Wind Chill: 72°   Ceiling: Unl
Heat Index: 72°   Visibility: 10mi
Dew Point: 63°   Wind: 5mph
Humidity: 73%   Direction: 80°E
Pressure: 30.08"   Gusts: NA
Location:  28.97°N, 82.42°W
Report Text: KCGC 201335Z AUTO 08004KT 10SM CLR 22/17 A3008 RMK AO2 PWINO
Loading
Personal Weather Stations






























Interactive Weather Map
Tropical Storm Tracking
New forecast layout! Learn more

10-Day Weather Forecast

Advertisements
Track Severe Weather on mobile